NORTHEAST SUFFOLK  -  Winter Weather Advisory Winter Weather Advisory        NORTHERN NASSAU  -  Winter Weather Advisory Winter Weather Advisory        NORTHWEST SUFFOLK  -  Winter Weather Advisory Winter Weather Advisory        SOUTHEAST SUFFOLK  -  Winter Weather Advisory Winter Weather Advisory        SOUTHERN NASSAU  -  Winter Weather Advisory Winter Weather Advisory        SOUTHWEST SUFFOLK  -  Winter Weather Advisory Winter Weather Advisory      

Active alerts

Northern Nassau
  Details for Northern Nassau Winter Weather Advisory
Southern Nassau
  Details for Southern Nassau Winter Weather Advisory
Northwest Suffolk
  Details for Northwest Suffolk Winter Weather Advisory
Southwest Suffolk
  Details for Southwest Suffolk Winter Weather Advisory
Northeast Suffolk
  Details for Northeast Suffolk Winter Weather Advisory
Southeast Suffolk
  Details for Southeast Suffolk Winter Weather Advisory


WXM80 ListenWXM80 Stop

You find our weather info also at:

UK Metoffice

WeatherCloud

Weather Underground

Northeastern Weather Network

AWEKAS

Citizen Weather Observer Program (CWOP)

HAMweather, WeatherForYou, PWS Weather


Weather Underground History page Text

Daily Summary for September 19, 2017 Units:  Both    English   Metric
« Previous Day
Next Day »
Daily Weekly Monthly Yearly Custom
  High: Low: Average:
Temperature: 73.7 °F /  23.2 °C 68.9 °F /  20.5 °C 70.3 °F /  21.3 °C
Dew Point: 68.7 °F /  20.4 °C 66.5 °F /  19.2 °C 67.8 °F /  19.9 °C
Humidity: 96 % 82 % 92 %
Wind Speed: 11.1 mph /  17.9 km/h - 6.1 mph /  9.8 km/h
Wind Gust: 20.0 mph /  32.2 km/h - -
Wind:- - ENE
Pressure: 30.01 in /  1016.1 hPa 29.78 in /  1008.4 hPa -
Precipitation: 0.24 in /  6.1 mm    
Historical Graphs
 
 
Tabular Data for September 19, 2017
Time Temperature Dew Point Pressure Wind Wind Speed Wind Gust Humidity Rainfall Rate (Hourly)
00:04 71.0 °F /  21.7 °C 68.6 °F /  20.3 °C 30.01 in /  1016.1 hPa ENE 2.1 mph /  3.4 km/h 3.5 mph /  5.6 km/h 92 % 0.00 in /  0 mm
00:09 71.0 °F /  21.7 °C 68.6 °F /  20.3 °C 30.01 in /  1016.1 hPa ENE 3.5 mph /  5.6 km/h 4.6 mph /  7.4 km/h 92 % 0.00 in /  0 mm
00:14 71.0 °F /  21.7 °C 68.6 °F /  20.3 °C 30.01 in /  1016.1 hPa ENE 4.3 mph /  6.9 km/h 5.8 mph /  9.3 km/h 92 % 0.00 in /  0 mm
00:19 71.0 °F /  21.7 °C 68.6 °F /  20.3 °C 30.01 in /  1016.1 hPa ENE 4.4 mph /  7.1 km/h 6.9 mph /  11.1 km/h 92 % 0.00 in /  0 mm
00:24 71.0 °F /  21.7 °C 68.6 °F /  20.3 °C 30.01 in /  1016.1 hPa NE 4.4 mph /  7.1 km/h 8.1 mph /  13 km/h 92 % 0.00 in /  0 mm
00:29 71.0 °F /  21.7 °C 68.6 °F /  20.3 °C 30.01 in /  1016.1 hPa NE 4.5 mph /  7.2 km/h 8.1 mph /  13 km/h 92 % 0.00 in /  0 mm
00:34 70.9 °F /  21.6 °C 68.5 °F /  20.3 °C 30.01 in /  1016.1 hPa ENE 5.4 mph /  8.7 km/h 5.8 mph /  9.3 km/h 92 % 0.00 in /  0 mm
00:40 70.9 °F /  21.6 °C 68.5 °F /  20.3 °C 30.01 in /  1016.1 hPa ENE 2.7 mph /  4.3 km/h 3.5 mph /  5.6 km/h 92 % 0.00 in /  0 mm
00:45 70.9 °F /  21.6 °C 68.5 °F /  20.3 °C 30.01 in /  1016.1 hPa ENE 3.4 mph /  5.5 km/h 6.9 mph /  11.1 km/h 92 % 0.00 in /  0 mm
00:50 70.9 °F /  21.6 °C 68.5 °F /  20.3 °C 30.01 in /  1016.1 hPa ENE 2.3 mph /  3.7 km/h 6.9 mph /  11.1 km/h 92 % 0.00 in /  0 mm
00:55 70.8 °F /  21.6 °C 68.4 °F /  20.2 °C 30.01 in /  1016.1 hPa ENE 4.2 mph /  6.8 km/h 7.0 mph /  11.3 km/h 92 % 0.00 in /  0 mm
01:00 70.8 °F /  21.6 °C 68.4 °F /  20.2 °C 30.01 in /  1016.1 hPa ENE 2.9 mph /  4.7 km/h 4.6 mph /  7.4 km/h 92 % 0.00 in /  0 mm
01:05 70.8 °F /  21.6 °C 68.7 °F /  20.4 °C 30.01 in /  1016.1 hPa East 4.3 mph /  6.9 km/h 6.9 mph /  11.1 km/h 93 % 0.00 in /  0 mm
01:10 70.8 °F /  21.6 °C 68.7 °F /  20.4 °C 30.01 in /  1016.1 hPa ENE 4.8 mph /  7.7 km/h 8.1 mph /  13 km/h 93 % 0.00 in /  0 mm
01:15 70.8 °F /  21.6 °C 68.7 °F /  20.4 °C 30.01 in /  1016.1 hPa ENE 3.4 mph /  5.5 km/h 8.1 mph /  13 km/h 93 % 0.00 in /  0 mm
01:20 70.8 °F /  21.6 °C 68.7 °F /  20.4 °C 30.01 in /  1016.1 hPa ENE 3.6 mph /  5.8 km/h 9.0 mph /  14.5 km/h 93 % 0.00 in /  0 mm
01:25 70.7 °F /  21.5 °C 68.6 °F /  20.3 °C 30.01 in /  1016.1 hPa ENE 4.2 mph /  6.8 km/h 8.0 mph /  12.9 km/h 93 % 0.00 in /  0 mm
01:30 70.7 °F /  21.5 °C 68.6 °F /  20.3 °C 30.00 in /  1015.8 hPa ENE 3.6 mph /  5.8 km/h 5.0 mph /  8 km/h 93 % 0.00 in /  0 mm
01:35 70.7 °F /  21.5 °C 68.6 °F /  20.3 °C 30.00 in /  1015.8 hPa ENE 3.1 mph /  5 km/h 5.8 mph /  9.3 km/h 93 % 0.00 in /  0 mm
01:40 70.7 °F /  21.5 °C 68.6 °F /  20.3 °C 30.00 in /  1015.8 hPa ENE 4.8 mph /  7.7 km/h 5.8 mph /  9.3 km/h 93 % 0.00 in /  0 mm
01:46 70.7 °F /  21.5 °C 68.6 °F /  20.3 °C 30.00 in /  1015.8 hPa ENE 4.2 mph /  6.8 km/h 5.8 mph /  9.3 km/h 93 % 0.00 in /  0 mm
01:51 70.7 °F /  21.5 °C 68.6 °F /  20.3 °C 30.00 in /  1015.8 hPa ENE 3.0 mph /  4.8 km/h 8.0 mph /  12.9 km/h 93 % 0.00 in /  0 mm
01:56 70.7 °F /  21.5 °C 68.6 °F /  20.3 °C 30.00 in /  1015.8 hPa NE 3.3 mph /  5.3 km/h 8.1 mph /  13 km/h 93 % 0.00 in /  0 mm
02:01 70.7 °F /  21.5 °C 68.6 °F /  20.3 °C 30.00 in /  1015.8 hPa ENE 2.7 mph /  4.3 km/h 3.5 mph /  5.6 km/h 93 % 0.00 in /  0 mm
02:06 70.7 °F /  21.5 °C 68.6 °F /  20.3 °C 30.00 in /  1015.8 hPa ENE 5.0 mph /  8 km/h 10.4 mph /  16.7 km/h 93 % 0.00 in /  0 mm
02:11 70.7 °F /  21.5 °C 68.6 °F /  20.3 °C 30.00 in /  1015.8 hPa ENE 4.4 mph /  7.1 km/h 6.9 mph /  11.1 km/h 93 % 0.00 in /  0 mm
02:16 70.7 °F /  21.5 °C 68.6 °F /  20.3 °C 29.99 in /  1015.5 hPa ENE 3.6 mph /  5.8 km/h 5.0 mph /  8 km/h 93 % 0.00 in /  0 mm
02:21 70.7 °F /  21.5 °C 68.6 °F /  20.3 °C 29.99 in /  1015.5 hPa ENE 3.7 mph /  6 km/h 6.9 mph /  11.1 km/h 93 % 0.00 in /  0 mm
02:26 70.7 °F /  21.5 °C 68.6 °F /  20.3 °C 29.99 in /  1015.5 hPa NE 3.2 mph /  5.1 km/h 5.0 mph /  8 km/h 93 % 0.00 in /  0 mm
02:31 70.7 °F /  21.5 °C 68.6 °F /  20.3 °C 29.99 in /  1015.5 hPa East 3.3 mph /  5.3 km/h 5.0 mph /  8 km/h 93 % 0.00 in /  0 mm
02:36 70.7 °F /  21.5 °C 68.6 °F /  20.3 °C 29.99 in /  1015.5 hPa ENE 5.0 mph /  8 km/h 9.2 mph /  14.8 km/h 93 % 0.00 in /  0 mm
02:41 70.6 °F /  21.4 °C 68.5 °F /  20.3 °C 29.98 in /  1015.1 hPa NE 2.3 mph /  3.7 km/h 3.5 mph /  5.6 km/h 93 % 0.00 in /  0 mm
02:46 70.6 °F /  21.4 °C 68.5 °F /  20.3 °C 29.98 in /  1015.1 hPa East 4.3 mph /  6.9 km/h 9.2 mph /  14.8 km/h 93 % 0.00 in /  0 mm
02:51 70.6 °F /  21.4 °C 68.2 °F /  20.1 °C 29.98 in /  1015.1 hPa NE 3.3 mph /  5.3 km/h 6.9 mph /  11.1 km/h 92 % 0.00 in /  0 mm
02:57 70.6 °F /  21.4 °C 68.2 °F /  20.1 °C 29.98 in /  1015.1 hPa NE 4.5 mph /  7.2 km/h 9.2 mph /  14.8 km/h 92 % 0.00 in /  0 mm
03:02 70.6 °F /  21.4 °C 68.5 °F /  20.3 °C 29.98 in /  1015.1 hPa ENE 4.5 mph /  7.2 km/h 8.1 mph /  13 km/h 93 % 0.00 in /  0 mm
03:07 70.6 °F /  21.4 °C 68.5 °F /  20.3 °C 29.98 in /  1015.1 hPa ENE 3.2 mph /  5.1 km/h 9.2 mph /  14.8 km/h 93 % 0.00 in /  0 mm
03:12 70.6 °F /  21.4 °C 68.5 °F /  20.3 °C 29.98 in /  1015.1 hPa ENE 3.9 mph /  6.3 km/h 7.0 mph /  11.3 km/h 93 % 0.00 in /  0 mm
03:17 70.5 °F /  21.4 °C 68.4 °F /  20.2 °C 29.97 in /  1014.8 hPa ENE 7.5 mph /  12.1 km/h 11.5 mph /  18.5 km/h 93 % 0.00 in /  0 mm
03:22 70.5 °F /  21.4 °C 68.4 °F /  20.2 °C 29.97 in /  1014.8 hPa East 6.6 mph /  10.6 km/h 11.5 mph /  18.5 km/h 93 % 0.00 in /  0 mm
03:27 70.5 °F /  21.4 °C 68.1 °F /  20.1 °C 29.97 in /  1014.8 hPa ENE 6.5 mph /  10.5 km/h 10.4 mph /  16.7 km/h 92 % 0.00 in /  0 mm
03:32 70.5 °F /  21.4 °C 68.1 °F /  20.1 °C 29.98 in /  1015.1 hPa East 4.5 mph /  7.2 km/h 8.1 mph /  13 km/h 92 % 0.00 in /  0 mm
03:37 70.5 °F /  21.4 °C 68.4 °F /  20.2 °C 29.98 in /  1015.1 hPa ENE 5.5 mph /  8.9 km/h 6.9 mph /  11.1 km/h 93 % 0.00 in /  0 mm
03:42 70.5 °F /  21.4 °C 68.4 °F /  20.2 °C 29.97 in /  1014.8 hPa NNE 4.6 mph /  7.4 km/h 11.5 mph /  18.5 km/h 93 % 0.00 in /  0 mm
03:47 70.5 °F /  21.4 °C 68.4 °F /  20.2 °C 29.98 in /  1015.1 hPa ENE 4.4 mph /  7.1 km/h 5.0 mph /  8 km/h 93 % 0.00 in /  0 mm
03:52 70.5 °F /  21.4 °C 68.4 °F /  20.2 °C 29.97 in /  1014.8 hPa ENE 6.1 mph /  9.8 km/h 10.4 mph /  16.7 km/h 93 % 0.00 in /  0 mm
03:58 70.4 °F /  21.3 °C 68.3 °F /  20.2 °C 29.97 in /  1014.8 hPa ENE 4.9 mph /  7.9 km/h 10.4 mph /  16.7 km/h 93 % 0.00 in /  0 mm
04:03 70.4 °F /  21.3 °C 68.3 °F /  20.2 °C 29.97 in /  1014.8 hPa NE 5.2 mph /  8.4 km/h 8.1 mph /  13 km/h 93 % 0.00 in /  0 mm
04:08 70.4 °F /  21.3 °C 68.3 °F /  20.2 °C 29.97 in /  1014.8 hPa ENE 4.3 mph /  6.9 km/h 11.5 mph /  18.5 km/h 93 % 0.00 in /  0 mm
04:13 70.3 °F /  21.3 °C 68.2 °F /  20.1 °C 29.97 in /  1014.8 hPa ENE 6.8 mph /  10.9 km/h 10.4 mph /  16.7 km/h 93 % 0.00 in /  0 mm
04:18 70.3 °F /  21.3 °C 68.2 °F /  20.1 °C 29.97 in /  1014.8 hPa NE 8.8 mph /  14.2 km/h 12.7 mph /  20.4 km/h 93 % 0.00 in /  0 mm
04:23 70.2 °F /  21.2 °C 68.1 °F /  20.1 °C 29.97 in /  1014.8 hPa NE 6.7 mph /  10.8 km/h 8.1 mph /  13 km/h 93 % 0.00 in /  0 mm
04:28 70.2 °F /  21.2 °C 68.1 °F /  20.1 °C 29.97 in /  1014.8 hPa ENE 6.5 mph /  10.5 km/h 11.5 mph /  18.5 km/h 93 % 0.00 in /  0 mm
04:33 70.2 °F /  21.2 °C 68.1 °F /  20.1 °C 29.97 in /  1014.8 hPa ENE 4.6 mph /  7.4 km/h 8.0 mph /  12.9 km/h 93 % 0.00 in /  0 mm
04:38 70.2 °F /  21.2 °C 68.1 °F /  20.1 °C 29.97 in /  1014.8 hPa ENE 5.0 mph /  8 km/h 8.0 mph /  12.9 km/h 93 % 0.00 in /  0 mm
04:43 70.2 °F /  21.2 °C 68.1 °F /  20.1 °C 29.97 in /  1014.8 hPa ENE 5.2 mph /  8.4 km/h 12.7 mph /  20.4 km/h 93 % 0.00 in /  0 mm
04:48 70.2 °F /  21.2 °C 68.1 °F /  20.1 °C 29.97 in /  1014.8 hPa NE 5.3 mph /  8.5 km/h 11.0 mph /  17.7 km/h 93 % 0.00 in /  0 mm
04:53 70.2 °F /  21.2 °C 68.1 °F /  20.1 °C 29.97 in /  1014.8 hPa ENE 6.4 mph /  10.3 km/h 12.7 mph /  20.4 km/h 93 % 0.00 in /  0 mm
04:59 70.1 °F /  21.2 °C 68.0 °F /  20 °C 29.97 in /  1014.8 hPa NE 6.4 mph /  10.3 km/h 9.0 mph /  14.5 km/h 93 % 0.00 in /  0 mm
05:04 70.1 °F /  21.2 °C 68.0 °F /  20 °C 29.97 in /  1014.8 hPa ENE 4.2 mph /  6.8 km/h 11.5 mph /  18.5 km/h 93 % 0.00 in /  0 mm
05:09 70.1 °F /  21.2 °C 68.0 °F /  20 °C 29.96 in /  1014.4 hPa ENE 6.3 mph /  10.1 km/h 11.5 mph /  18.5 km/h 93 % 0.00 in /  0 mm
05:14 70.1 °F /  21.2 °C 68.0 °F /  20 °C 29.96 in /  1014.4 hPa ENE 5.5 mph /  8.9 km/h 9.2 mph /  14.8 km/h 93 % 0.00 in /  0 mm
05:19 70.0 °F /  21.1 °C 67.9 °F /  19.9 °C 29.96 in /  1014.4 hPa ENE 4.3 mph /  6.9 km/h 8.1 mph /  13 km/h 93 % 0.00 in /  0 mm
05:24 70.0 °F /  21.1 °C 67.9 °F /  19.9 °C 29.97 in /  1014.8 hPa ENE 7.4 mph /  11.9 km/h 13.0 mph /  20.9 km/h 93 % 0.00 in /  0 mm
05:29 70.0 °F /  21.1 °C 67.9 °F /  19.9 °C 29.96 in /  1014.4 hPa ENE 6.4 mph /  10.3 km/h 11.5 mph /  18.5 km/h 93 % 0.00 in /  0 mm
05:34 69.9 °F /  21.1 °C 67.8 °F /  19.9 °C 29.96 in /  1014.4 hPa NE 5.0 mph /  8 km/h 10.4 mph /  16.7 km/h 93 % 0.00 in /  0 mm
05:39 69.9 °F /  21.1 °C 67.5 °F /  19.7 °C 29.96 in /  1014.4 hPa NE 6.0 mph /  9.7 km/h 9.2 mph /  14.8 km/h 92 % 0.00 in /  0 mm
05:44 69.8 °F /  21 °C 67.4 °F /  19.7 °C 29.96 in /  1014.4 hPa ENE 6.3 mph /  10.1 km/h 10.4 mph /  16.7 km/h 92 % 0.00 in /  0 mm
05:49 69.8 °F /  21 °C 67.4 °F /  19.7 °C 29.96 in /  1014.4 hPa NE 5.6 mph /  9 km/h 10.4 mph /  16.7 km/h 92 % 0.00 in /  0 mm
05:54 69.8 °F /  21 °C 67.4 °F /  19.7 °C 29.97 in /  1014.8 hPa ENE 5.1 mph /  8.2 km/h 10.4 mph /  16.7 km/h 92 % 0.00 in /  0 mm
05:59 69.7 °F /  20.9 °C 67.3 °F /  19.6 °C 29.97 in /  1014.8 hPa ENE 6.0 mph /  9.7 km/h 8.0 mph /  12.9 km/h 92 % 0.00 in /  0 mm
06:05 69.7 °F /  20.9 °C 67.3 °F /  19.6 °C 29.96 in /  1014.4 hPa NNE 6.0 mph /  9.7 km/h 11.5 mph /  18.5 km/h 92 % 0.00 in /  0 mm
06:10 69.7 °F /  20.9 °C 67.3 °F /  19.6 °C 29.96 in /  1014.4 hPa NE 4.1 mph /  6.6 km/h 8.1 mph /  13 km/h 92 % 0.00 in /  0 mm
06:15 69.7 °F /  20.9 °C 67.3 °F /  19.6 °C 29.96 in /  1014.4 hPa ENE 4.5 mph /  7.2 km/h 8.1 mph /  13 km/h 92 % 0.00 in /  0 mm
06:20 69.6 °F /  20.9 °C 67.2 °F /  19.6 °C 29.97 in /  1014.8 hPa NE 3.7 mph /  6 km/h 6.9 mph /  11.1 km/h 92 % 0.00 in /  0 mm
06:25 69.6 °F /  20.9 °C 67.2 °F /  19.6 °C 29.97 in /  1014.8 hPa NE 3.1 mph /  5 km/h 8.1 mph /  13 km/h 92 % 0.00 in /  0 mm
06:30 69.6 °F /  20.9 °C 67.2 °F /  19.6 °C 29.97 in /  1014.8 hPa NNE 3.9 mph /  6.3 km/h 8.1 mph /  13 km/h 92 % 0.00 in /  0 mm
06:35 69.5 °F /  20.8 °C 67.1 °F /  19.5 °C 29.97 in /  1014.8 hPa East 3.6 mph /  5.8 km/h 6.0 mph /  9.7 km/h 92 % 0.00 in /  0 mm
06:40 69.5 °F /  20.8 °C 67.1 °F /  19.5 °C 29.97 in /  1014.8 hPa NNE 3.4 mph /  5.5 km/h 4.6 mph /  7.4 km/h 92 % 0.00 in /  0 mm
06:45 69.4 °F /  20.8 °C 67.0 °F /  19.4 °C 29.97 in /  1014.8 hPa ENE 3.3 mph /  5.3 km/h 6.9 mph /  11.1 km/h 92 % 0.00 in /  0 mm
06:50 69.4 °F /  20.8 °C 67.0 °F /  19.4 °C 29.97 in /  1014.8 hPa NE 5.0 mph /  8 km/h 8.1 mph /  13 km/h 92 % 0.00 in /  0 mm
06:55 69.4 °F /  20.8 °C 67.0 °F /  19.4 °C 29.97 in /  1014.8 hPa ENE 6.5 mph /  10.5 km/h 10.4 mph /  16.7 km/h 92 % 0.00 in /  0 mm
07:00 69.3 °F /  20.7 °C 66.9 °F /  19.4 °C 29.97 in /  1014.8 hPa NE 4.7 mph /  7.6 km/h 9.2 mph /  14.8 km/h 92 % 0.00 in /  0 mm
07:02 69.3 °F /  20.7 °C 66.9 °F /  19.4 °C 29.97 in /  1014.8 hPa NE 5.2 mph /  8.4 km/h 8.1 mph /  13 km/h 92 % 0.00 in /  0 mm
07:07 69.2 °F /  20.7 °C 66.8 °F /  19.3 °C 29.96 in /  1014.4 hPa NE 4.3 mph /  6.9 km/h 6.9 mph /  11.1 km/h 92 % 0.00 in /  0 mm
07:12 69.2 °F /  20.7 °C 66.8 °F /  19.3 °C 29.96 in /  1014.4 hPa ENE 6.1 mph /  9.8 km/h 9.2 mph /  14.8 km/h 92 % 0.00 in /  0 mm
07:17 69.2 °F /  20.7 °C 66.8 °F /  19.3 °C 29.96 in /  1014.4 hPa ENE 9.0 mph /  14.5 km/h 13.8 mph /  22.2 km/h 92 % 0.00 in /  0 mm
07:22 69.2 °F /  20.7 °C 66.8 °F /  19.3 °C 29.95 in /  1014.1 hPa ENE 5.7 mph /  9.2 km/h 9.0 mph /  14.5 km/h 92 % 0.00 in /  0 mm
07:28 69.2 °F /  20.7 °C 66.8 °F /  19.3 °C 29.95 in /  1014.1 hPa ENE 5.9 mph /  9.5 km/h 9.0 mph /  14.5 km/h 92 % 0.00 in /  0 mm
07:33 69.2 °F /  20.7 °C 66.8 °F /  19.3 °C 29.95 in /  1014.1 hPa ENE 6.7 mph /  10.8 km/h 11.5 mph /  18.5 km/h 92 % 0.00 in /  0 mm
07:38 69.3 °F /  20.7 °C 66.9 °F /  19.4 °C 29.95 in /  1014.1 hPa NE 4.1 mph /  6.6 km/h 11.5 mph /  18.5 km/h 92 % 0.00 in /  0 mm
07:43 69.3 °F /  20.7 °C 66.9 °F /  19.4 °C 29.95 in /  1014.1 hPa NE 6.7 mph /  10.8 km/h 8.1 mph /  13 km/h 92 % 0.00 in /  0 mm
07:48 69.3 °F /  20.7 °C 66.9 °F /  19.4 °C 29.95 in /  1014.1 hPa ENE 5.1 mph /  8.2 km/h 9.2 mph /  14.8 km/h 92 % 0.00 in /  0 mm
07:53 69.3 °F /  20.7 °C 66.9 °F /  19.4 °C 29.95 in /  1014.1 hPa ENE 5.3 mph /  8.5 km/h 9.2 mph /  14.8 km/h 92 % 0.00 in /  0 mm
07:58 69.3 °F /  20.7 °C 66.9 °F /  19.4 °C 29.95 in /  1014.1 hPa ENE 6.6 mph /  10.6 km/h 12.7 mph /  20.4 km/h 92 % 0.00 in /  0 mm
08:03 69.3 °F /  20.7 °C 66.9 °F /  19.4 °C 29.95 in /  1014.1 hPa NE 4.4 mph /  7.1 km/h 6.9 mph /  11.1 km/h 92 % 0.00 in /  0 mm
08:08 69.3 °F /  20.7 °C 66.6 °F /  19.2 °C 29.95 in /  1014.1 hPa NE 7.7 mph /  12.4 km/h 12.7 mph /  20.4 km/h 91 % 0.00 in /  0 mm
08:13 69.3 °F /  20.7 °C 66.6 °F /  19.2 °C 29.95 in /  1014.1 hPa ENE 5.0 mph /  8 km/h 11.5 mph /  18.5 km/h 91 % 0.00 in /  0 mm
08:18 69.3 °F /  20.7 °C 66.6 °F /  19.2 °C 29.95 in /  1014.1 hPa North 5.3 mph /  8.5 km/h 9.2 mph /  14.8 km/h 91 % 0.00 in /  0 mm
08:23 69.3 °F /  20.7 °C 66.6 °F /  19.2 °C 29.95 in /  1014.1 hPa ENE 8.1 mph /  13 km/h 13.8 mph /  22.2 km/h 91 % 0.00 in /  0 mm
08:28 69.3 °F /  20.7 °C 66.6 °F /  19.2 °C 29.96 in /  1014.4 hPa ENE 5.8 mph /  9.3 km/h 7.0 mph /  11.3 km/h 91 % 0.00 in /  0 mm
08:34 69.4 °F /  20.8 °C 66.7 °F /  19.3 °C 29.96 in /  1014.4 hPa ENE 4.6 mph /  7.4 km/h 7.0 mph /  11.3 km/h 91 % 0.00 in /  0 mm
08:39 69.4 °F /  20.8 °C 66.7 °F /  19.3 °C 29.96 in /  1014.4 hPa ENE 9.3 mph /  15 km/h 15.0 mph /  24.1 km/h 91 % 0.00 in /  0 mm
08:44 69.5 °F /  20.8 °C 66.8 °F /  19.3 °C 29.96 in /  1014.4 hPa ENE 5.1 mph /  8.2 km/h 13.8 mph /  22.2 km/h 91 % 0.00 in /  0 mm
08:49 69.5 °F /  20.8 °C 66.8 °F /  19.3 °C 29.96 in /  1014.4 hPa NE 5.7 mph /  9.2 km/h 10.4 mph /  16.7 km/h 91 % 0.00 in /  0 mm
08:54 69.7 °F /  20.9 °C 67.0 °F /  19.4 °C 29.96 in /  1014.4 hPa NE 6.6 mph /  10.6 km/h 11.5 mph /  18.5 km/h 91 % 0.00 in /  0 mm
08:59 69.8 °F /  21 °C 67.1 °F /  19.5 °C 29.96 in /  1014.4 hPa ENE 5.4 mph /  8.7 km/h 10.4 mph /  16.7 km/h 91 % 0.00 in /  0 mm
09:04 69.9 °F /  21.1 °C 67.2 °F /  19.6 °C 29.96 in /  1014.4 hPa NE 4.0 mph /  6.4 km/h 9.2 mph /  14.8 km/h 91 % 0.00 in /  0 mm
09:09 70.0 °F /  21.1 °C 66.9 °F /  19.4 °C 29.96 in /  1014.4 hPa ENE 5.8 mph /  9.3 km/h 10.4 mph /  16.7 km/h 90 % 0.00 in /  0 mm
09:14 70.0 °F /  21.1 °C 66.6 °F /  19.2 °C 29.96 in /  1014.4 hPa ENE 5.9 mph /  9.5 km/h 10.4 mph /  16.7 km/h 89 % 0.00 in /  0 mm
09:19 70.1 °F /  21.2 °C 67.0 °F /  19.4 °C 29.96 in /  1014.4 hPa ENE 6.3 mph /  10.1 km/h 10.4 mph /  16.7 km/h 90 % 0.00 in /  0 mm
09:29 70.1 °F /  21.2 °C 66.7 °F /  19.3 °C 29.96 in /  1014.4 hPa ENE 3.8 mph /  6.1 km/h 11.5 mph /  18.5 km/h 89 % 0.00 in /  0 mm
09:34 70.0 °F /  21.1 °C 66.6 °F /  19.2 °C 29.96 in /  1014.4 hPa NE 6.6 mph /  10.6 km/h 9.2 mph /  14.8 km/h 89 % 0.00 in /  0 mm
09:39 70.0 °F /  21.1 °C 66.9 °F /  19.4 °C 29.96 in /  1014.4 hPa ENE 4.4 mph /  7.1 km/h 6.9 mph /  11.1 km/h 90 % 0.00 in /  0 mm
09:45 70.0 °F /  21.1 °C 66.9 °F /  19.4 °C 29.97 in /  1014.8 hPa ENE 6.0 mph /  9.7 km/h 10.4 mph /  16.7 km/h 90 % 0.00 in /  0 mm
09:50 70.0 °F /  21.1 °C 66.9 °F /  19.4 °C 29.97 in /  1014.8 hPa ENE 4.3 mph /  6.9 km/h 9.2 mph /  14.8 km/h 90 % 0.00 in /  0 mm
09:55 70.0 °F /  21.1 °C 66.9 °F /  19.4 °C 29.97 in /  1014.8 hPa ENE 3.7 mph /  6 km/h 9.2 mph /  14.8 km/h 90 % 0.00 in /  0 mm
10:00 70.1 °F /  21.2 °C 67.0 °F /  19.4 °C 29.97 in /  1014.8 hPa NE 3.0 mph /  4.8 km/h 4.6 mph /  7.4 km/h 90 % 0.00 in /  0 mm
10:05 70.1 °F /  21.2 °C 67.0 °F /  19.4 °C 29.96 in /  1014.4 hPa ENE 6.3 mph /  10.1 km/h 10.4 mph /  16.7 km/h 90 % 0.00 in /  0 mm
10:10 70.2 °F /  21.2 °C 66.8 °F /  19.3 °C 29.97 in /  1014.8 hPa ENE 7.0 mph /  11.3 km/h 13.0 mph /  20.9 km/h 89 % 0.00 in /  0 mm
10:15 70.2 °F /  21.2 °C 66.5 °F /  19.2 °C 29.96 in /  1014.4 hPa ENE 7.9 mph /  12.7 km/h 12.7 mph /  20.4 km/h 88 % 0.00 in /  0 mm
10:20 70.3 °F /  21.3 °C 66.6 °F /  19.2 °C 29.96 in /  1014.4 hPa North 5.4 mph /  8.7 km/h 10.4 mph /  16.7 km/h 88 % 0.00 in /  0 mm
10:25 70.4 °F /  21.3 °C 67.0 °F /  19.4 °C 29.96 in /  1014.4 hPa NE 6.4 mph /  10.3 km/h 16.1 mph /  25.9 km/h 89 % 0.00 in /  0 mm
10:30 70.6 °F /  21.4 °C 67.2 °F /  19.6 °C 29.95 in /  1014.1 hPa NE 5.1 mph /  8.2 km/h 6.9 mph /  11.1 km/h 89 % 0.00 in /  0 mm
10:35 70.8 °F /  21.6 °C 67.1 °F /  19.5 °C 29.95 in /  1014.1 hPa ENE 5.9 mph /  9.5 km/h 10.4 mph /  16.7 km/h 88 % 0.00 in /  0 mm
10:41 71.0 °F /  21.7 °C 67.3 °F /  19.6 °C 29.95 in /  1014.1 hPa East 9.4 mph /  15.1 km/h 10.0 mph /  16.1 km/h 88 % 0.00 in /  0 mm
10:46 71.1 °F /  21.7 °C 67.0 °F /  19.4 °C 29.95 in /  1014.1 hPa ENE 8.0 mph /  12.9 km/h 12.0 mph /  19.3 km/h 87 % 0.00 in /  0 mm
10:51 71.2 °F /  21.8 °C 67.1 °F /  19.5 °C 29.96 in /  1014.4 hPa ENE 7.0 mph /  11.3 km/h 15.0 mph /  24.1 km/h 87 % 0.00 in /  0 mm
10:56 71.2 °F /  21.8 °C 67.1 °F /  19.5 °C 29.95 in /  1014.1 hPa ENE 9.0 mph /  14.5 km/h 13.0 mph /  20.9 km/h 87 % 0.00 in /  0 mm
11:01 71.3 °F /  21.8 °C 67.2 °F /  19.6 °C 29.95 in /  1014.1 hPa ENE 6.4 mph /  10.3 km/h 12.7 mph /  20.4 km/h 87 % 0.00 in /  0 mm
11:06 71.5 °F /  21.9 °C 67.4 °F /  19.7 °C 29.95 in /  1014.1 hPa ENE 6.0 mph /  9.7 km/h 15.0 mph /  24.1 km/h 87 % 0.00 in /  0 mm
11:11 71.8 °F /  22.1 °C 67.4 °F /  19.7 °C 29.95 in /  1014.1 hPa ENE 8.0 mph /  12.9 km/h 13.0 mph /  20.9 km/h 86 % 0.00 in /  0 mm
11:16 72.2 °F /  22.3 °C 67.7 °F /  19.8 °C 29.94 in /  1013.8 hPa ENE 7.0 mph /  11.3 km/h 13.0 mph /  20.9 km/h 86 % 0.00 in /  0 mm
11:21 72.7 °F /  22.6 °C 68.3 °F /  20.2 °C 29.95 in /  1014.1 hPa ENE 8.0 mph /  12.9 km/h 15.0 mph /  24.1 km/h 86 % 0.00 in /  0 mm
11:26 73.1 °F /  22.8 °C 68.0 °F /  20 °C 29.94 in /  1013.8 hPa ENE 7.0 mph /  11.3 km/h 17.0 mph /  27.4 km/h 84 % 0.00 in /  0 mm
11:31 73.5 °F /  23.1 °C 68.4 °F /  20.2 °C 29.94 in /  1013.8 hPa ENE 8.0 mph /  12.9 km/h 14.0 mph /  22.5 km/h 84 % 0.00 in /  0 mm
11:36 73.7 °F /  23.2 °C 67.9 °F /  19.9 °C 29.94 in /  1013.8 hPa ENE 9.0 mph /  14.5 km/h 14.0 mph /  22.5 km/h 82 % 0.00 in /  0 mm
11:41 73.6 °F /  23.1 °C 68.1 °F /  20.1 °C 29.94 in /  1013.8 hPa ENE 7.0 mph /  11.3 km/h 17.0 mph /  27.4 km/h 83 % 0.00 in /  0 mm
11:46 73.6 °F /  23.1 °C 68.1 °F /  20.1 °C 29.94 in /  1013.8 hPa ENE 9.0 mph /  14.5 km/h 13.0 mph /  20.9 km/h 83 % 0.00 in /  0 mm
11:51 73.4 °F /  23 °C 67.9 °F /  19.9 °C 29.93 in /  1013.4 hPa ENE 8.0 mph /  12.9 km/h 18.0 mph /  29 km/h 83 % 0.00 in /  0 mm
11:56 73.3 °F /  22.9 °C 67.8 °F /  19.9 °C 29.93 in /  1013.4 hPa ENE 9.0 mph /  14.5 km/h 16.0 mph /  25.7 km/h 83 % 0.00 in /  0 mm
12:01 73.3 °F /  22.9 °C 67.8 °F /  19.9 °C 29.93 in /  1013.4 hPa ENE 10.8 mph /  17.4 km/h 19.6 mph /  31.5 km/h 83 % 0.00 in /  0 mm
12:06 73.3 °F /  22.9 °C 67.8 °F /  19.9 °C 29.92 in /  1013.1 hPa ENE 7.7 mph /  12.4 km/h 16.1 mph /  25.9 km/h 83 % 0.00 in /  0 mm
12:11 73.2 °F /  22.9 °C 67.7 °F /  19.8 °C 29.92 in /  1013.1 hPa NE 9.5 mph /  15.3 km/h 15.0 mph /  24.1 km/h 83 % 0.00 in /  0 mm
12:16 73.1 °F /  22.8 °C 68.0 °F /  20 °C 29.92 in /  1013.1 hPa NE 8.5 mph /  13.7 km/h 11.5 mph /  18.5 km/h 84 % 0.00 in /  0 mm
12:21 73.1 °F /  22.8 °C 68.0 °F /  20 °C 29.92 in /  1013.1 hPa NE 7.9 mph /  12.7 km/h 13.8 mph /  22.2 km/h 84 % 0.00 in /  0 mm
12:26 73.0 °F /  22.8 °C 67.9 °F /  19.9 °C 29.92 in /  1013.1 hPa NE 6.8 mph /  10.9 km/h 12.0 mph /  19.3 km/h 84 % 0.00 in /  0 mm
12:31 72.9 °F /  22.7 °C 68.1 °F /  20.1 °C 29.92 in /  1013.1 hPa NE 6.6 mph /  10.6 km/h 13.0 mph /  20.9 km/h 85 % 0.00 in /  0 mm
12:36 72.8 °F /  22.7 °C 68.0 °F /  20 °C 29.92 in /  1013.1 hPa ENE 9.6 mph /  15.4 km/h 16.1 mph /  25.9 km/h 85 % 0.00 in /  0 mm
12:41 72.6 °F /  22.6 °C 67.8 °F /  19.9 °C 29.92 in /  1013.1 hPa ENE 9.3 mph /  15 km/h 16.1 mph /  25.9 km/h 85 % 0.00 in /  0 mm
12:46 72.5 °F /  22.5 °C 68.1 °F /  20.1 °C 29.92 in /  1013.1 hPa NE 9.7 mph /  15.6 km/h 15.0 mph /  24.1 km/h 86 % 0.00 in /  0 mm
12:51 72.2 °F /  22.3 °C 67.8 °F /  19.9 °C 29.92 in /  1013.1 hPa ENE 10.8 mph /  17.4 km/h 12.7 mph /  20.4 km/h 86 % 0.00 in /  0 mm
12:57 72.0 °F /  22.2 °C 67.6 °F /  19.8 °C 29.91 in /  1012.8 hPa ENE 9.4 mph /  15.1 km/h 15.0 mph /  24.1 km/h 86 % 0.00 in /  0 mm
13:02 71.9 °F /  22.2 °C 67.5 °F /  19.7 °C 29.90 in /  1012.4 hPa NNE 11.1 mph /  17.9 km/h 13.8 mph /  22.2 km/h 86 % 0.00 in /  0 mm
13:07 71.9 °F /  22.2 °C 67.8 °F /  19.9 °C 29.91 in /  1012.8 hPa ENE 6.0 mph /  9.7 km/h 11.5 mph /  18.5 km/h 87 % 0.00 in /  0 mm
13:12 71.9 °F /  22.2 °C 67.8 °F /  19.9 °C 29.90 in /  1012.4 hPa NE 5.3 mph /  8.5 km/h 8.1 mph /  13 km/h 87 % 0.00 in /  0 mm
13:17 71.9 °F /  22.2 °C 68.2 °F /  20.1 °C 29.90 in /  1012.4 hPa NE 5.0 mph /  8 km/h 10.4 mph /  16.7 km/h 88 % 0.00 in /  0 mm
13:22 71.9 °F /  22.2 °C 67.8 °F /  19.9 °C 29.90 in /  1012.4 hPa ENE 6.5 mph /  10.5 km/h 11.5 mph /  18.5 km/h 87 % 0.00 in /  0 mm
13:27 71.9 °F /  22.2 °C 68.2 °F /  20.1 °C 29.90 in /  1012.4 hPa NE 5.9 mph /  9.5 km/h 10.4 mph /  16.7 km/h 88 % 0.01 in /  0.25 mm
13:32 71.7 °F /  22.1 °C 68.0 °F /  20 °C 29.89 in /  1012.1 hPa ENE 5.1 mph /  8.2 km/h 8.1 mph /  13 km/h 88 % 0.01 in /  0.25 mm
13:37 71.6 °F /  22 °C 67.9 °F /  19.9 °C 29.89 in /  1012.1 hPa ENE 4.5 mph /  7.2 km/h 8.1 mph /  13 km/h 88 % 0.01 in /  0.25 mm
13:42 71.4 °F /  21.9 °C 68.0 °F /  20 °C 29.89 in /  1012.1 hPa ENE 5.3 mph /  8.5 km/h 10.4 mph /  16.7 km/h 89 % 0.02 in /  0.51 mm
13:44 71.3 °F /  21.8 °C 67.9 °F /  19.9 °C 29.89 in /  1012.1 hPa ENE 4.0 mph /  6.4 km/h 7.0 mph /  11.3 km/h 89 % 0.02 in /  0.51 mm
13:49 71.2 °F /  21.8 °C 67.8 °F /  19.9 °C 29.89 in /  1012.1 hPa ENE 4.6 mph /  7.4 km/h 13.0 mph /  20.9 km/h 89 % 0.03 in /  0.76 mm
13:54 71.0 °F /  21.7 °C 67.9 °F /  19.9 °C 29.89 in /  1012.1 hPa NE 4.2 mph /  6.8 km/h 9.2 mph /  14.8 km/h 90 % 0.05 in /  1.27 mm
13:59 70.8 °F /  21.6 °C 68.0 °F /  20 °C 29.89 in /  1012.1 hPa East 5.3 mph /  8.5 km/h 10.0 mph /  16.1 km/h 91 % 0.06 in /  1.52 mm
14:04 70.6 °F /  21.4 °C 67.8 °F /  19.9 °C 29.89 in /  1012.1 hPa East 5.4 mph /  8.7 km/h 9.2 mph /  14.8 km/h 91 % 0.07 in /  1.78 mm
14:09 70.4 °F /  21.3 °C 67.6 °F /  19.8 °C 29.89 in /  1012.1 hPa ENE 5.8 mph /  9.3 km/h 9.2 mph /  14.8 km/h 91 % 0.09 in /  2.29 mm
14:14 70.2 °F /  21.2 °C 67.8 °F /  19.9 °C 29.89 in /  1012.1 hPa NNE 5.8 mph /  9.3 km/h 9.0 mph /  14.5 km/h 92 % 0.11 in /  2.79 mm
14:19 70.1 °F /  21.2 °C 67.7 °F /  19.8 °C 29.88 in /  1011.7 hPa NNE 6.3 mph /  10.1 km/h 11.5 mph /  18.5 km/h 92 % 0.11 in /  2.79 mm
14:25 69.9 °F /  21.1 °C 67.8 °F /  19.9 °C 29.88 in /  1011.7 hPa NNE 6.7 mph /  10.8 km/h 10.4 mph /  16.7 km/h 93 % 0.12 in /  3.05 mm
14:30 69.8 °F /  21 °C 67.7 °F /  19.8 °C 29.88 in /  1011.7 hPa NE 4.7 mph /  7.6 km/h 9.2 mph /  14.8 km/h 93 % 0.13 in /  3.3 mm
14:35 69.7 °F /  20.9 °C 67.9 °F /  19.9 °C 29.87 in /  1011.4 hPa North 5.2 mph /  8.4 km/h 9.2 mph /  14.8 km/h 94 % 0.14 in /  3.56 mm
14:40 69.7 °F /  20.9 °C 67.9 °F /  19.9 °C 29.87 in /  1011.4 hPa NNE 6.1 mph /  9.8 km/h 11.5 mph /  18.5 km/h 94 % 0.13 in /  3.3 mm
14:45 69.6 °F /  20.9 °C 67.8 °F /  19.9 °C 29.86 in /  1011.1 hPa NE 5.3 mph /  8.5 km/h 9.0 mph /  14.5 km/h 94 % 0.13 in /  3.3 mm
14:50 69.5 °F /  20.8 °C 67.7 °F /  19.8 °C 29.86 in /  1011.1 hPa NE 6.6 mph /  10.6 km/h 11.5 mph /  18.5 km/h 94 % 0.13 in /  3.3 mm
14:55 69.4 °F /  20.8 °C 67.6 °F /  19.8 °C 29.86 in /  1011.1 hPa North 8.6 mph /  13.8 km/h 11.5 mph /  18.5 km/h 94 % 0.11 in /  2.79 mm
14:59 69.4 °F /  20.8 °C 67.9 °F /  19.9 °C 29.86 in /  1011.1 hPa North 8.4 mph /  13.5 km/h 10.4 mph /  16.7 km/h 95 % 0.10 in /  2.54 mm
15:04 69.5 °F /  20.8 °C 68.0 °F /  20 °C 29.85 in /  1010.7 hPa North 9.5 mph /  15.3 km/h 15.0 mph /  24.1 km/h 95 % 0.09 in /  2.29 mm
15:09 69.5 °F /  20.8 °C 68.0 °F /  20 °C 29.85 in /  1010.7 hPa NNE 9.6 mph /  15.4 km/h 13.8 mph /  22.2 km/h 95 % 0.07 in /  1.78 mm
15:14 69.6 °F /  20.9 °C 68.4 °F /  20.2 °C 29.85 in /  1010.7 hPa North 9.3 mph /  15 km/h 11.5 mph /  18.5 km/h 96 % 0.05 in /  1.27 mm
15:19 69.6 °F /  20.9 °C 68.4 °F /  20.2 °C 29.85 in /  1010.7 hPa NNE 9.9 mph /  15.9 km/h 12.7 mph /  20.4 km/h 96 % 0.05 in /  1.27 mm
15:25 69.6 °F /  20.9 °C 68.4 °F /  20.2 °C 29.85 in /  1010.7 hPa NNE 5.9 mph /  9.5 km/h 15.0 mph /  24.1 km/h 96 % 0.03 in /  0.76 mm
15:30 69.7 °F /  20.9 °C 68.5 °F /  20.3 °C 29.85 in /  1010.7 hPa NNE 7.6 mph /  12.2 km/h 11.5 mph /  18.5 km/h 96 % 0.02 in /  0.51 mm
15:35 69.7 °F /  20.9 °C 68.5 °F /  20.3 °C 29.84 in /  1010.4 hPa NNE 8.1 mph /  13 km/h 15.0 mph /  24.1 km/h 96 % 0.01 in /  0.25 mm
15:40 69.7 °F /  20.9 °C 68.5 °F /  20.3 °C 29.84 in /  1010.4 hPa NNE 8.8 mph /  14.2 km/h 13.8 mph /  22.2 km/h 96 % 0.01 in /  0.25 mm
15:45 69.7 °F /  20.9 °C 68.2 °F /  20.1 °C 29.84 in /  1010.4 hPa NNE 9.0 mph /  14.5 km/h 20.0 mph /  32.2 km/h 95 % 0.00 in /  0 mm
15:50 69.7 °F /  20.9 °C 68.2 °F /  20.1 °C 29.84 in /  1010.4 hPa NNE 8.0 mph /  12.9 km/h 15.0 mph /  24.1 km/h 95 % 0.00 in /  0 mm
15:55 69.7 °F /  20.9 °C 68.2 °F /  20.1 °C 29.84 in /  1010.4 hPa ENE 10.3 mph /  16.6 km/h 17.3 mph /  27.8 km/h 95 % 0.00 in /  0 mm
16:01 69.7 °F /  20.9 °C 68.2 °F /  20.1 °C 29.85 in /  1010.7 hPa North 7.4 mph /  11.9 km/h 12.0 mph /  19.3 km/h 95 % 0.00 in /  0 mm
16:06 69.7 °F /  20.9 °C 68.2 °F /  20.1 °C 29.84 in /  1010.4 hPa NNE 6.7 mph /  10.8 km/h 17.3 mph /  27.8 km/h 95 % 0.00 in /  0 mm
16:11 69.7 °F /  20.9 °C 68.2 °F /  20.1 °C 29.84 in /  1010.4 hPa NNE 5.6 mph /  9 km/h 13.0 mph /  20.9 km/h 95 % 0.00 in /  0 mm
16:16 69.8 °F /  21 °C 68.3 °F /  20.2 °C 29.84 in /  1010.4 hPa NNE 6.2 mph /  10 km/h 11.5 mph /  18.5 km/h 95 % 0.00 in /  0 mm
16:21 69.8 °F /  21 °C 68.3 °F /  20.2 °C 29.84 in /  1010.4 hPa NE 7.6 mph /  12.2 km/h 11.0 mph /  17.7 km/h 95 % 0.01 in /  0.25 mm
16:26 69.8 °F /  21 °C 68.3 °F /  20.2 °C 29.84 in /  1010.4 hPa North 9.2 mph /  14.8 km/h 15.0 mph /  24.1 km/h 95 % 0.01 in /  0.25 mm
16:31 69.8 °F /  21 °C 68.3 °F /  20.2 °C 29.84 in /  1010.4 hPa NE 4.7 mph /  7.6 km/h 11.5 mph /  18.5 km/h 95 % 0.01 in /  0.25 mm
16:36 69.7 °F /  20.9 °C 68.2 °F /  20.1 °C 29.84 in /  1010.4 hPa NNE 5.3 mph /  8.5 km/h 13.0 mph /  20.9 km/h 95 % 0.02 in /  0.51 mm
16:41 69.6 °F /  20.9 °C 68.1 °F /  20.1 °C 29.84 in /  1010.4 hPa NE 7.5 mph /  12.1 km/h 16.1 mph /  25.9 km/h 95 % 0.02 in /  0.51 mm
16:46 69.6 °F /  20.9 °C 68.1 °F /  20.1 °C 29.84 in /  1010.4 hPa NE 7.8 mph /  12.6 km/h 11.5 mph /  18.5 km/h 95 % 0.02 in /  0.51 mm
16:51 69.5 °F /  20.8 °C 68.0 °F /  20 °C 29.84 in /  1010.4 hPa NNE 6.4 mph /  10.3 km/h 12.7 mph /  20.4 km/h 95 % 0.02 in /  0.51 mm
16:57 69.4 °F /  20.8 °C 67.9 °F /  19.9 °C 29.84 in /  1010.4 hPa ENE 5.2 mph /  8.4 km/h 10.4 mph /  16.7 km/h 95 % 0.02 in /  0.51 mm
17:02 69.4 °F /  20.8 °C 67.9 °F /  19.9 °C 29.83 in /  1010 hPa East 6.2 mph /  10 km/h 13.8 mph /  22.2 km/h 95 % 0.02 in /  0.51 mm
17:07 69.4 °F /  20.8 °C 67.9 °F /  19.9 °C 29.83 in /  1010 hPa North 4.7 mph /  7.6 km/h 9.2 mph /  14.8 km/h 95 % 0.02 in /  0.51 mm
17:12 69.4 °F /  20.8 °C 67.9 °F /  19.9 °C 29.83 in /  1010 hPa NNE 9.7 mph /  15.6 km/h 15.0 mph /  24.1 km/h 95 % 0.02 in /  0.51 mm
17:17 69.3 °F /  20.7 °C 67.8 °F /  19.9 °C 29.83 in /  1010 hPa NNE 7.4 mph /  11.9 km/h 12.7 mph /  20.4 km/h 95 % 0.01 in /  0.25 mm
17:22 69.3 °F /  20.7 °C 67.8 °F /  19.9 °C 29.84 in /  1010.4 hPa NNE 6.1 mph /  9.8 km/h 11.5 mph /  18.5 km/h 95 % 0.01 in /  0.25 mm
17:27 69.4 °F /  20.8 °C 67.9 °F /  19.9 °C 29.84 in /  1010.4 hPa NE 7.0 mph /  11.3 km/h 9.2 mph /  14.8 km/h 95 % 0.01 in /  0.25 mm
17:32 69.3 °F /  20.7 °C 67.8 °F /  19.9 °C 29.83 in /  1010 hPa East 6.2 mph /  10 km/h 11.5 mph /  18.5 km/h 95 % 0.01 in /  0.25 mm
17:37 69.4 °F /  20.8 °C 67.9 °F /  19.9 °C 29.83 in /  1010 hPa NNE 5.5 mph /  8.9 km/h 12.7 mph /  20.4 km/h 95 % 0.00 in /  0 mm
17:42 69.4 °F /  20.8 °C 67.9 °F /  19.9 °C 29.83 in /  1010 hPa NE 10.2 mph /  16.4 km/h 10.2 mph /  16.4 km/h 95 % 0.00 in /  0 mm
17:47 69.3 °F /  20.7 °C 67.8 °F /  19.9 °C 29.83 in /  1010 hPa NE 8.8 mph /  14.2 km/h 16.1 mph /  25.9 km/h 95 % 0.00 in /  0 mm
17:52 69.3 °F /  20.7 °C 67.8 °F /  19.9 °C 29.83 in /  1010 hPa NE 6.8 mph /  10.9 km/h 8.0 mph /  12.9 km/h 95 % 0.00 in /  0 mm
17:58 69.3 °F /  20.7 °C 67.8 °F /  19.9 °C 29.83 in /  1010 hPa NNE 7.0 mph /  11.3 km/h 10.4 mph /  16.7 km/h 95 % 0.01 in /  0.25 mm
18:03 69.2 °F /  20.7 °C 67.7 °F /  19.8 °C 29.83 in /  1010 hPa NNE 6.5 mph /  10.5 km/h 15.0 mph /  24.1 km/h 95 % 0.05 in /  1.27 mm
18:08 69.2 °F /  20.7 °C 67.7 °F /  19.8 °C 29.83 in /  1010 hPa North 5.4 mph /  8.7 km/h 11.5 mph /  18.5 km/h 95 % 0.05 in /  1.27 mm
18:13 69.1 °F /  20.6 °C 67.6 °F /  19.8 °C 29.82 in /  1009.7 hPa North 6.7 mph /  10.8 km/h 11.5 mph /  18.5 km/h 95 % 0.05 in /  1.27 mm
18:18 69.0 °F /  20.6 °C 67.5 °F /  19.7 °C 29.82 in /  1009.7 hPa North 5.4 mph /  8.7 km/h 12.0 mph /  19.3 km/h 95 % 0.05 in /  1.27 mm
18:23 69.0 °F /  20.6 °C 67.5 °F /  19.7 °C 29.82 in /  1009.7 hPa NE 7.2 mph /  11.6 km/h 11.5 mph /  18.5 km/h 95 % 0.05 in /  1.27 mm
18:28 69.0 °F /  20.6 °C 67.5 °F /  19.7 °C 29.82 in /  1009.7 hPa NE 5.5 mph /  8.9 km/h 11.5 mph /  18.5 km/h 95 % 0.05 in /  1.27 mm
18:33 69.0 °F /  20.6 °C 67.8 °F /  19.9 °C 29.82 in /  1009.7 hPa NE 7.9 mph /  12.7 km/h 12.0 mph /  19.3 km/h 96 % 0.05 in /  1.27 mm
18:38 69.0 °F /  20.6 °C 67.8 °F /  19.9 °C 29.82 in /  1009.7 hPa NE 6.6 mph /  10.6 km/h 12.0 mph /  19.3 km/h 96 % 0.05 in /  1.27 mm
18:43 69.0 °F /  20.6 °C 67.8 °F /  19.9 °C 29.82 in /  1009.7 hPa NE 5.0 mph /  8 km/h 12.7 mph /  20.4 km/h 96 % 0.05 in /  1.27 mm
18:48 68.9 °F /  20.5 °C 67.7 °F /  19.8 °C 29.82 in /  1009.7 hPa ENE 5.8 mph /  9.3 km/h 9.2 mph /  14.8 km/h 96 % 0.06 in /  1.52 mm
18:53 68.9 °F /  20.5 °C 67.7 °F /  19.8 °C 29.82 in /  1009.7 hPa NE 5.7 mph /  9.2 km/h 10.4 mph /  16.7 km/h 96 % 0.06 in /  1.52 mm
18:58 68.9 °F /  20.5 °C 67.7 °F /  19.8 °C 29.81 in /  1009.4 hPa NE 4.5 mph /  7.2 km/h 9.2 mph /  14.8 km/h 96 % 0.05 in /  1.27 mm
19:03 68.9 °F /  20.5 °C 67.7 °F /  19.8 °C 29.81 in /  1009.4 hPa NNE 6.5 mph /  10.5 km/h 11.5 mph /  18.5 km/h 96 % 0.01 in /  0.25 mm
19:09 68.9 °F /  20.5 °C 67.7 °F /  19.8 °C 29.81 in /  1009.4 hPa NNE 8.0 mph /  12.9 km/h 12.7 mph /  20.4 km/h 96 % 0.01 in /  0.25 mm
19:14 69.0 °F /  20.6 °C 67.8 °F /  19.9 °C 29.81 in /  1009.4 hPa NNE 5.7 mph /  9.2 km/h 11.5 mph /  18.5 km/h 96 % 0.01 in /  0.25 mm
19:19 68.9 °F /  20.5 °C 67.7 °F /  19.8 °C 29.81 in /  1009.4 hPa ENE 7.4 mph /  11.9 km/h 12.7 mph /  20.4 km/h 96 % 0.01 in /  0.25 mm
19:24 69.0 °F /  20.6 °C 67.8 °F /  19.9 °C 29.81 in /  1009.4 hPa North 6.0 mph /  9.7 km/h 10.4 mph /  16.7 km/h 96 % 0.01 in /  0.25 mm
19:29 69.0 °F /  20.6 °C 67.8 °F /  19.9 °C 29.81 in /  1009.4 hPa ENE 8.8 mph /  14.2 km/h 13.8 mph /  22.2 km/h 96 % 0.01 in /  0.25 mm
19:34 69.0 °F /  20.6 °C 67.8 °F /  19.9 °C 29.81 in /  1009.4 hPa NNE 6.5 mph /  10.5 km/h 11.5 mph /  18.5 km/h 96 % 0.01 in /  0.25 mm
19:39 69.0 °F /  20.6 °C 67.8 °F /  19.9 °C 29.81 in /  1009.4 hPa NE 5.8 mph /  9.3 km/h 11.5 mph /  18.5 km/h 96 % 0.01 in /  0.25 mm
19:44 69.1 °F /  20.6 °C 67.9 °F /  19.9 °C 29.81 in /  1009.4 hPa ENE 6.1 mph /  9.8 km/h 11.5 mph /  18.5 km/h 96 % 0.01 in /  0.25 mm
19:49 69.1 °F /  20.6 °C 67.9 °F /  19.9 °C 29.81 in /  1009.4 hPa NE 5.1 mph /  8.2 km/h 8.1 mph /  13 km/h 96 % 0.00 in /  0 mm
19:54 69.1 °F /  20.6 °C 67.9 °F /  19.9 °C 29.81 in /  1009.4 hPa NNE 7.9 mph /  12.7 km/h 12.7 mph /  20.4 km/h 96 % 0.00 in /  0 mm
19:59 69.1 °F /  20.6 °C 67.6 °F /  19.8 °C 29.81 in /  1009.4 hPa North 5.4 mph /  8.7 km/h 10.4 mph /  16.7 km/h 95 % 0.00 in /  0 mm
20:04 69.1 °F /  20.6 °C 67.6 °F /  19.8 °C 29.81 in /  1009.4 hPa NE 7.2 mph /  11.6 km/h 17.3 mph /  27.8 km/h 95 % 0.00 in /  0 mm
20:10 69.2 °F /  20.7 °C 67.7 °F /  19.8 °C 29.81 in /  1009.4 hPa NE 5.8 mph /  9.3 km/h 10.4 mph /  16.7 km/h 95 % 0.00 in /  0 mm
20:15 69.2 °F /  20.7 °C 67.7 °F /  19.8 °C 29.81 in /  1009.4 hPa NE 6.8 mph /  10.9 km/h 11.5 mph /  18.5 km/h 95 % 0.00 in /  0 mm
20:20 69.3 °F /  20.7 °C 67.5 °F /  19.7 °C 29.81 in /  1009.4 hPa NE 5.6 mph /  9 km/h 13.0 mph /  20.9 km/h 94 % 0.00 in /  0 mm
20:25 69.3 °F /  20.7 °C 67.5 °F /  19.7 °C 29.82 in /  1009.7 hPa NNE 5.0 mph /  8 km/h 9.2 mph /  14.8 km/h 94 % 0.00 in /  0 mm
20:30 69.4 °F /  20.8 °C 67.6 °F /  19.8 °C 29.82 in /  1009.7 hPa NE 5.0 mph /  8 km/h 10.0 mph /  16.1 km/h 94 % 0.00 in /  0 mm
20:35 69.5 °F /  20.8 °C 67.7 °F /  19.8 °C 29.81 in /  1009.4 hPa NNE 5.6 mph /  9 km/h 9.2 mph /  14.8 km/h 94 % 0.00 in /  0 mm
20:40 69.6 °F /  20.9 °C 67.8 °F /  19.9 °C 29.81 in /  1009.4 hPa NE 6.9 mph /  11.1 km/h 13.8 mph /  22.2 km/h 94 % 0.00 in /  0 mm
20:45 69.6 °F /  20.9 °C 67.8 °F /  19.9 °C 29.82 in /  1009.7 hPa East 5.4 mph /  8.7 km/h 9.0 mph /  14.5 km/h 94 % 0.00 in /  0 mm
20:50 69.7 °F /  20.9 °C 67.9 °F /  19.9 °C 29.81 in /  1009.4 hPa ENE 7.7 mph /  12.4 km/h 12.7 mph /  20.4 km/h 94 % 0.00 in /  0 mm
20:55 69.7 °F /  20.9 °C 67.9 °F /  19.9 °C 29.81 in /  1009.4 hPa NE 5.8 mph /  9.3 km/h 9.0 mph /  14.5 km/h 94 % 0.00 in /  0 mm
21:00 69.8 °F /  21 °C 67.7 °F /  19.8 °C 29.81 in /  1009.4 hPa NE 8.8 mph /  14.2 km/h 13.0 mph /  20.9 km/h 93 % 0.00 in /  0 mm
21:05 69.8 °F /  21 °C 67.7 °F /  19.8 °C 29.81 in /  1009.4 hPa ENE 5.5 mph /  8.9 km/h 11.5 mph /  18.5 km/h 93 % 0.00 in /  0 mm
21:10 69.8 °F /  21 °C 67.7 °F /  19.8 °C 29.81 in /  1009.4 hPa NE 5.5 mph /  8.9 km/h 10.4 mph /  16.7 km/h 93 % 0.00 in /  0 mm
21:16 69.9 °F /  21.1 °C 67.8 °F /  19.9 °C 29.81 in /  1009.4 hPa NE 6.0 mph /  9.7 km/h 10.0 mph /  16.1 km/h 93 % 0.00 in /  0 mm
21:21 69.9 °F /  21.1 °C 67.8 °F /  19.9 °C 29.81 in /  1009.4 hPa ENE 6.6 mph /  10.6 km/h 12.0 mph /  19.3 km/h 93 % 0.00 in /  0 mm
21:26 69.9 °F /  21.1 °C 67.8 °F /  19.9 °C 29.81 in /  1009.4 hPa NE 7.0 mph /  11.3 km/h 15.0 mph /  24.1 km/h 93 % 0.00 in /  0 mm
21:31 70.0 °F /  21.1 °C 67.9 °F /  19.9 °C 29.81 in /  1009.4 hPa NE 8.0 mph /  12.9 km/h 17.0 mph /  27.4 km/h 93 % 0.00 in /  0 mm
21:36 70.0 °F /  21.1 °C 67.9 °F /  19.9 °C 29.81 in /  1009.4 hPa NE 7.0 mph /  11.3 km/h 12.0 mph /  19.3 km/h 93 % 0.00 in /  0 mm
21:41 70.0 °F /  21.1 °C 67.9 °F /  19.9 °C 29.80 in /  1009 hPa NE 8.0 mph /  12.9 km/h 20.0 mph /  32.2 km/h 93 % 0.00 in /  0 mm
21:46 70.1 °F /  21.2 °C 68.0 °F /  20 °C 29.81 in /  1009.4 hPa NNE 6.1 mph /  9.8 km/h 11.5 mph /  18.5 km/h 93 % 0.00 in /  0 mm
21:51 70.1 °F /  21.2 °C 68.0 °F /  20 °C 29.80 in /  1009 hPa NE 7.0 mph /  11.3 km/h 14.0 mph /  22.5 km/h 93 % 0.00 in /  0 mm
21:56 70.1 °F /  21.2 °C 68.0 °F /  20 °C 29.80 in /  1009 hPa NE 6.0 mph /  9.7 km/h 16.0 mph /  25.7 km/h 93 % 0.00 in /  0 mm
22:01 70.1 °F /  21.2 °C 68.0 °F /  20 °C 29.80 in /  1009 hPa NNE 5.8 mph /  9.3 km/h 11.5 mph /  18.5 km/h 93 % 0.00 in /  0 mm
22:06 70.1 °F /  21.2 °C 67.7 °F /  19.8 °C 29.80 in /  1009 hPa ENE 7.9 mph /  12.7 km/h 15.0 mph /  24.1 km/h 92 % 0.00 in /  0 mm
22:11 70.2 °F /  21.2 °C 67.8 °F /  19.9 °C 29.80 in /  1009 hPa NNE 6.9 mph /  11.1 km/h 13.8 mph /  22.2 km/h 92 % 0.00 in /  0 mm
22:16 70.2 °F /  21.2 °C 67.8 °F /  19.9 °C 29.79 in /  1008.7 hPa NNE 5.7 mph /  9.2 km/h 15.0 mph /  24.1 km/h 92 % 0.00 in /  0 mm
22:21 70.3 °F /  21.3 °C 67.9 °F /  19.9 °C 29.79 in /  1008.7 hPa North 5.2 mph /  8.4 km/h 18.4 mph /  29.6 km/h 92 % 0.00 in /  0 mm
22:26 70.3 °F /  21.3 °C 67.5 °F /  19.7 °C 29.79 in /  1008.7 hPa NNE 5.7 mph /  9.2 km/h 15.0 mph /  24.1 km/h 91 % 0.00 in /  0 mm
22:31 70.3 °F /  21.3 °C 67.5 °F /  19.7 °C 29.79 in /  1008.7 hPa NE 7.0 mph /  11.3 km/h 11.5 mph /  18.5 km/h 91 % 0.00 in /  0 mm
22:36 70.4 °F /  21.3 °C 67.6 °F /  19.8 °C 29.79 in /  1008.7 hPa NNE 6.7 mph /  10.8 km/h 11.5 mph /  18.5 km/h 91 % 0.00 in /  0 mm
22:41 70.5 °F /  21.4 °C 67.7 °F /  19.8 °C 29.79 in /  1008.7 hPa ENE 7.2 mph /  11.6 km/h 12.7 mph /  20.4 km/h 91 % 0.00 in /  0 mm
22:46 70.5 °F /  21.4 °C 67.7 °F /  19.8 °C 29.79 in /  1008.7 hPa NNE 8.1 mph /  13 km/h 15.0 mph /  24.1 km/h 91 % 0.00 in /  0 mm
22:52 70.5 °F /  21.4 °C 67.7 °F /  19.8 °C 29.79 in /  1008.7 hPa NNE 7.2 mph /  11.6 km/h 12.7 mph /  20.4 km/h 91 % 0.00 in /  0 mm
22:57 70.6 °F /  21.4 °C 67.8 °F /  19.9 °C 29.79 in /  1008.7 hPa NNE 6.3 mph /  10.1 km/h 11.5 mph /  18.5 km/h 91 % 0.00 in /  0 mm
23:02 70.6 °F /  21.4 °C 67.8 °F /  19.9 °C 29.79 in /  1008.7 hPa North 6.7 mph /  10.8 km/h 14.0 mph /  22.5 km/h 91 % 0.00 in /  0 mm
23:07 70.6 °F /  21.4 °C 67.8 °F /  19.9 °C 29.79 in /  1008.7 hPa NNE 5.1 mph /  8.2 km/h 10.4 mph /  16.7 km/h 91 % 0.00 in /  0 mm
23:19 70.6 °F /  21.4 °C 67.5 °F /  19.7 °C 29.79 in /  1008.7 hPa ENE 7.7 mph /  12.4 km/h 12.0 mph /  19.3 km/h 90 % 0.00 in /  0 mm
23:22 70.6 °F /  21.4 °C 67.5 °F /  19.7 °C 29.79 in /  1008.7 hPa NE 8.2 mph /  13.2 km/h 12.7 mph /  20.4 km/h 90 % 0.00 in /  0 mm
23:23 70.6 °F /  21.4 °C 67.5 °F /  19.7 °C 29.79 in /  1008.7 hPa NNE 6.8 mph /  10.9 km/h 11.5 mph /  18.5 km/h 90 % 0.00 in /  0 mm
23:25 70.7 °F /  21.5 °C 67.6 °F /  19.8 °C 29.79 in /  1008.7 hPa ENE 6.3 mph /  10.1 km/h 11.5 mph /  18.5 km/h 90 % 0.00 in /  0 mm
23:26 70.6 °F /  21.4 °C 67.5 °F /  19.7 °C 29.79 in /  1008.7 hPa ENE 6.8 mph /  10.9 km/h 12.7 mph /  20.4 km/h 90 % 0.00 in /  0 mm
23:27 70.7 °F /  21.5 °C 67.6 °F /  19.8 °C 29.79 in /  1008.7 hPa NNW 5.8 mph /  9.3 km/h 10.0 mph /  16.1 km/h 90 % 0.00 in /  0 mm
23:32 70.6 °F /  21.4 °C 67.5 °F /  19.7 °C 29.79 in /  1008.7 hPa NNE 6.4 mph /  10.3 km/h 14.0 mph /  22.5 km/h 90 % 0.00 in /  0 mm
23:37 70.7 °F /  21.5 °C 67.6 °F /  19.8 °C 29.78 in /  1008.4 hPa NE 5.2 mph /  8.4 km/h 8.1 mph /  13 km/h 90 % 0.00 in /  0 mm
23:42 70.7 °F /  21.5 °C 67.6 °F /  19.8 °C 29.79 in /  1008.7 hPa NE 7.2 mph /  11.6 km/h 11.5 mph /  18.5 km/h 90 % 0.00 in /  0 mm
23:47 70.7 °F /  21.5 °C 67.6 °F /  19.8 °C 29.79 in /  1008.7 hPa NE 8.1 mph /  13 km/h 11.5 mph /  18.5 km/h 90 % 0.00 in /  0 mm
23:52 70.7 °F /  21.5 °C 67.6 °F /  19.8 °C 29.78 in /  1008.4 hPa North 8.4 mph /  13.5 km/h 12.7 mph /  20.4 km/h 90 % 0.00 in /  0 mm
23:57 70.7 °F /  21.5 °C 67.6 °F /  19.8 °C 29.78 in /  1008.4 hPa NNE 4.3 mph /  6.9 km/h 17.3 mph /  27.8 km/h 90 % 0.00 in /  0 mm
Crab Meadow Weather
Compliments of Weather Underground - 3 mb

Script developed by  Jim McMurry - jmcmurry@mwt.net Adapted for the template by  Wim van der Kuil - Leuven-Template.eu

Weather Terms: Winter Weather Advisory - Hazardous winter weather conditions are occurring, imminent or likely. Conditions will cause a significant inconvenience and if caution is not exercised, will result in a potential threat to life and/or property. The generic term, winter weather advisory, is used for a combination of two or more of the following events; snow, freezing rain or drizzle, sleet, blowing snow.